createdAt,value
2018-05-13T00:01:00.622Z,100063.47
2018-05-13T00:03:27.346Z,100061.04
2018-05-13T00:05:53.981Z,100061.84
2018-05-13T00:08:24.476Z,100060.41
2018-05-13T00:10:51.100Z,100058.89
2018-05-13T00:13:17.684Z,100062.12
2018-05-13T00:15:44.485Z,100054.70
2018-05-13T00:18:12.268Z,100055.84
2018-05-13T00:20:38.846Z,100055.44
2018-05-13T00:23:05.690Z,100052.47
2018-05-13T00:25:32.892Z,100048.59
2018-05-13T00:27:59.782Z,100053.19
2018-05-13T00:30:26.416Z,100049.50
2018-05-13T00:32:52.924Z,100047.63
2018-05-13T00:35:19.559Z,100044.56
2018-05-13T00:37:51.453Z,100046.21
2018-05-13T00:40:18.425Z,100041.50
2018-05-13T00:42:45.216Z,100043.95
2018-05-13T00:45:11.882Z,100032.50
2018-05-13T00:47:39.618Z,100027.89
2018-05-13T00:50:06.356Z,100027.97
2018-05-13T00:52:33.132Z,100027.52
2018-05-13T00:54:59.701Z,100017.63
2018-05-13T00:57:27.896Z,100026.58
2018-05-13T00:59:54.487Z,100022.03
2018-05-13T01:02:21.242Z,100023.17
2018-05-13T01:04:47.946Z,100023.41
2018-05-13T01:07:18.511Z,100014.34
2018-05-13T01:09:45.267Z,100016.53
2018-05-13T01:12:11.926Z,100011.69
2018-05-13T01:14:38.532Z,100012.88
2018-05-13T01:17:06.381Z,100005.45
2018-05-13T01:19:33.121Z,100014.76
2018-05-13T01:21:59.861Z,100013.75
2018-05-13T01:24:26.434Z,100006.28
2018-05-13T01:26:57.257Z,100010.69
2018-05-13T01:29:24.361Z,100011.64
2018-05-13T01:31:51.005Z,100012.34
2018-05-13T01:34:17.536Z,100005.02
2018-05-13T01:36:50.666Z,100001.33
2018-05-13T01:39:17.684Z,99993.58
2018-05-13T01:41:44.576Z,99985.81
2018-05-13T01:44:11.147Z,99973.88
2018-05-13T01:46:41.653Z,99972.45
2018-05-13T01:49:08.376Z,99982.48
2018-05-13T01:51:35.139Z,99973.38
2018-05-13T01:54:01.892Z,99976.92
2018-05-13T01:56:32.182Z,99978.02
2018-05-13T01:58:59.076Z,99970.41
2018-05-13T02:01:25.632Z,99983.73
2018-05-13T02:03:52.234Z,99978.45
2018-05-13T02:06:22.993Z,99974.23
2018-05-13T02:08:49.644Z,99976.27
2018-05-13T02:11:16.304Z,99970.26
2018-05-13T02:13:43.038Z,99967.78
2018-05-13T02:16:09.594Z,99963.72
2018-05-13T02:18:36.319Z,99960.14
2018-05-13T02:21:02.954Z,99966.96
2018-05-13T02:23:29.532Z,99961.58
2018-05-13T02:25:56.214Z,99964.91
2018-05-13T02:28:22.932Z,99969.59
2018-05-13T02:30:49.671Z,99963.45
2018-05-13T02:33:16.343Z,99958.39
2018-05-13T02:35:43.056Z,99965.84
2018-05-13T02:38:16.034Z,99956.02
2018-05-13T02:40:42.730Z,99965.32
2018-05-13T02:43:09.428Z,99968.87
2018-05-13T02:45:36.259Z,99967.15
2018-05-13T02:48:07.653Z,99974.65
2018-05-13T02:50:34.324Z,99975.52
2018-05-13T02:53:00.988Z,99970.27
2018-05-13T02:55:27.644Z,99974.91
2018-05-13T02:57:55.448Z,99976.53
2018-05-13T03:00:22.453Z,99982.53
2018-05-13T03:02:49.076Z,99974.63
2018-05-13T03:05:15.638Z,99979.41
2018-05-13T03:07:45.471Z,99977.21
2018-05-13T03:10:12.119Z,99979.29
2018-05-13T03:12:38.753Z,99978.47
2018-05-13T03:15:05.468Z,99975.41
2018-05-13T03:17:35.901Z,99971.90
2018-05-13T03:20:02.572Z,99974.41
2018-05-13T03:22:29.308Z,99972.79
2018-05-13T03:24:56.004Z,99972.02
2018-05-13T03:27:26.052Z,99963.58
2018-05-13T03:29:52.826Z,99969.77
2018-05-13T03:32:19.514Z,99966.91
2018-05-13T03:34:46.337Z,99965.03
2018-05-13T03:37:16.584Z,99959.44
2018-05-13T03:39:49.132Z,99954.54
2018-05-13T03:42:15.890Z,99961.20
2018-05-13T03:44:42.600Z,99960.58
2018-05-13T03:47:16.372Z,99953.16
2018-05-13T03:49:43.071Z,99956.31
2018-05-13T03:52:09.772Z,99958.73
2018-05-13T03:54:36.766Z,99958.96
2018-05-13T03:57:06.635Z,99959.30
2018-05-13T03:59:33.205Z,99951.45
2018-05-13T04:02:00.158Z,99954.47
2018-05-13T04:04:27.225Z,99957.17
2018-05-13T04:06:57.343Z,99953.88
2018-05-13T04:09:35.843Z,99960.41
2018-05-13T04:12:14.400Z,99957.84
2018-05-13T04:14:52.944Z,99956.31
2018-05-13T04:17:25.614Z,99956.91
2018-05-13T04:19:52.904Z,99954.95
2018-05-13T04:22:19.600Z,99954.28
2018-05-13T04:24:46.292Z,99953.09
2018-05-13T04:27:13.894Z,99950.25
2018-05-13T04:29:41.048Z,99948.86
2018-05-13T04:32:07.831Z,99947.16
2018-05-13T04:34:34.452Z,99945.27
2018-05-13T04:37:05.105Z,99936.23
2018-05-13T04:39:31.967Z,99945.78
2018-05-13T04:41:58.642Z,99941.94
2018-05-13T04:44:25.605Z,99943.59
2018-05-13T04:46:56.148Z,99942.31
2018-05-13T04:49:22.784Z,99940.06
2018-05-13T04:51:49.405Z,99938.88
2018-05-13T04:54:16.442Z,99946.08
2018-05-13T04:56:50.492Z,99945.89
2018-05-13T04:59:17.503Z,99950.04
2018-05-13T05:01:44.263Z,99946.59
2018-05-13T05:04:11.656Z,99946.72
2018-05-13T05:06:48.485Z,99955.00
2018-05-13T05:09:15.400Z,99952.02
2018-05-13T05:11:41.927Z,99954.78
2018-05-13T05:14:08.492Z,99953.67
2018-05-13T05:16:38.758Z,99953.61
2018-05-13T05:19:06.116Z,99952.42
2018-05-13T05:21:32.661Z,99951.17
2018-05-13T05:23:59.864Z,99947.16
2018-05-13T05:26:28.242Z,99942.96
2018-05-13T05:28:54.920Z,99938.96
2018-05-13T05:31:21.581Z,99946.59
2018-05-13T05:33:48.092Z,99955.55
2018-05-13T05:36:20.873Z,99949.60
2018-05-13T05:38:47.500Z,99942.82
2018-05-13T05:41:14.311Z,99941.09
2018-05-13T05:43:40.937Z,99937.92
2018-05-13T05:46:09.187Z,99941.58
2018-05-13T05:48:36.483Z,99945.66
2018-05-13T05:51:03.186Z,99938.92
2018-05-13T05:53:29.921Z,99938.92
2018-05-13T05:55:59.977Z,99937.59
2018-05-13T05:58:26.607Z,99933.89
2018-05-13T06:00:53.236Z,99934.15
2018-05-13T06:03:20.010Z,99936.12
2018-05-13T06:05:46.730Z,99930.60
2018-05-13T06:08:13.253Z,99930.20
2018-05-13T06:10:39.881Z,99927.31
2018-05-13T06:13:06.600Z,99927.88
2018-05-13T06:15:36.782Z,99930.41
2018-05-13T06:18:03.437Z,99921.70
2018-05-13T06:20:30.156Z,99932.52
2018-05-13T06:22:56.794Z,99927.82
2018-05-13T06:25:23.418Z,99938.19
2018-05-13T06:27:50.158Z,99933.97
2018-05-13T06:30:16.799Z,99940.27
2018-05-13T06:32:43.491Z,99937.09
2018-05-13T06:35:10.086Z,99929.56
2018-05-13T06:37:40.122Z,99932.35
2018-05-13T06:40:06.668Z,99930.34
2018-05-13T06:42:33.801Z,99929.52
2018-05-13T06:45:00.537Z,99931.32
2018-05-13T06:47:37.410Z,99923.49
2018-05-13T06:50:04.353Z,99931.32
2018-05-13T06:52:31.832Z,99924.55
2018-05-13T06:54:58.404Z,99921.81
2018-05-13T06:57:28.778Z,99922.20
2018-05-13T06:59:55.400Z,99919.56
2018-05-13T07:02:21.954Z,99924.15
2018-05-13T07:04:48.459Z,99919.32
2018-05-13T07:07:25.955Z,99915.44
2018-05-13T07:09:52.625Z,99911.95
2018-05-13T07:12:19.348Z,99914.57
2018-05-13T07:14:46.038Z,99911.75
2018-05-13T07:17:13.044Z,99903.42
2018-05-13T07:19:39.695Z,99899.91
2018-05-13T07:22:06.326Z,99901.32
2018-05-13T07:24:34.283Z,99898.68
2018-05-13T07:27:02.076Z,99896.34
2018-05-13T07:29:28.726Z,99896.73
2018-05-13T07:31:55.389Z,99887.69
2018-05-13T07:34:22.196Z,99894.59
2018-05-13T07:36:52.440Z,99888.55
2018-05-13T07:39:18.997Z,99877.80
2018-05-13T07:41:45.880Z,99877.60
2018-05-13T07:44:12.999Z,99876.83
2018-05-13T07:46:43.092Z,99881.28
2018-05-13T07:49:09.927Z,99871.54
2018-05-13T07:51:36.634Z,99870.89
2018-05-13T07:54:03.479Z,99877.00
2018-05-13T07:56:34.075Z,99864.64
2018-05-13T07:59:01.116Z,99869.63
2018-05-13T08:01:28.859Z,99867.19
2018-05-13T08:03:55.544Z,99867.30
2018-05-13T08:06:23.506Z,99865.69
2018-05-13T08:08:50.329Z,99861.99
2018-05-13T08:11:17.356Z,99857.11
2018-05-13T08:16:43.911Z,99862.24
2018-05-13T08:19:10.954Z,99853.88
2018-05-13T08:21:38.152Z,99859.83
2018-05-13T08:24:04.788Z,99848.29
2018-05-13T08:26:31.579Z,99848.69
2018-05-13T08:28:58.161Z,99841.13
2018-05-13T08:31:25.166Z,99839.61
2018-05-13T08:33:52.151Z,99846.63
2018-05-13T08:36:18.901Z,99839.63
2018-05-13T08:38:45.799Z,99840.64
2018-05-13T08:41:12.371Z,99838.31
2018-05-13T08:43:42.631Z,99844.05
2018-05-13T08:46:09.314Z,99845.91
2018-05-13T08:48:35.988Z,99836.33
2018-05-13T08:51:02.708Z,99845.73
2018-05-13T08:53:39.397Z,99831.80
2018-05-13T08:56:06.181Z,99836.52
2018-05-13T08:58:33.001Z,99825.42
2018-05-13T09:00:59.828Z,99815.84
2018-05-13T09:03:27.630Z,99814.02
2018-05-13T09:05:54.303Z,99808.37
2018-05-13T09:08:20.982Z,99798.83
2018-05-13T09:10:47.829Z,99821.56
2018-05-13T09:13:18.306Z,99810.30
2018-05-13T09:15:46.027Z,99814.09
2018-05-13T09:18:12.707Z,99822.09
2018-05-13T09:20:39.376Z,99819.02
2018-05-13T09:23:06.121Z,99814.52
2018-05-13T09:25:32.709Z,99812.53
2018-05-13T09:28:00.001Z,99823.28
2018-05-13T09:30:26.969Z,99828.05
2018-05-13T09:32:57.259Z,99824.19
2018-05-13T09:35:23.894Z,99817.86
2018-05-13T09:37:50.888Z,99824.94
2018-05-13T09:40:17.532Z,99823.31
2018-05-13T09:42:47.805Z,99823.47
2018-05-13T09:45:14.531Z,99816.12
2018-05-13T09:47:41.170Z,99816.48
2018-05-13T09:50:07.727Z,99808.72
2018-05-13T09:52:34.559Z,99797.49
2018-05-13T09:55:01.251Z,99802.14
2018-05-13T09:57:27.925Z,99797.39
2018-05-13T09:59:54.961Z,99795.92
2018-05-13T10:02:22.934Z,99795.21
2018-05-13T10:04:49.633Z,99796.05
2018-05-13T10:07:16.744Z,99796.84
2018-05-13T10:09:43.488Z,99804.07
2018-05-13T10:12:10.329Z,99803.14
2018-05-13T10:14:37.203Z,99800.42
2018-05-13T10:17:03.819Z,99797.36
2018-05-13T10:19:30.767Z,99796.90
2018-05-13T10:22:00.657Z,99784.94
2018-05-13T10:24:27.709Z,99786.58
2018-05-13T10:26:54.342Z,99774.78
2018-05-13T10:29:21.112Z,99782.02
2018-05-13T10:31:51.302Z,99776.82
2018-05-13T10:34:18.000Z,99783.84
2018-05-13T10:36:45.222Z,99786.42
2018-05-13T10:39:11.929Z,99780.57
2018-05-13T10:41:42.944Z,99775.67
2018-05-13T10:44:09.489Z,99770.98
2018-05-13T10:46:36.164Z,99783.84
2018-05-13T10:49:02.697Z,99775.30
2018-05-13T10:51:33.026Z,99773.15
2018-05-13T10:53:59.760Z,99771.10
2018-05-13T10:59:42.107Z,99773.08
2018-05-13T11:02:09.607Z,99772.81
2018-05-13T11:04:36.209Z,99777.61
2018-05-13T11:07:03.032Z,99769.42
2018-05-13T11:09:29.741Z,99774.34
2018-05-13T11:11:56.359Z,99762.22
2018-05-13T11:14:23.143Z,99761.12
2018-05-13T11:16:53.793Z,99758.96
2018-05-13T11:19:20.442Z,99763.70
2018-05-13T11:21:47.129Z,99767.94
2018-05-13T11:24:13.765Z,99763.98
2018-05-13T11:26:40.461Z,99762.25
2018-05-13T11:29:07.273Z,99751.52
2018-05-13T11:31:33.792Z,99748.00
2018-05-13T11:34:01.206Z,99752.55
2018-05-13T11:36:32.469Z,99751.95
2018-05-13T11:38:59.115Z,99756.03
2018-05-13T11:41:25.764Z,99745.23
2018-05-13T11:43:52.458Z,99741.48
2018-05-13T11:46:19.240Z,99737.45
2018-05-13T11:48:46.135Z,99738.42
2018-05-13T11:51:12.863Z,99741.72
2018-05-13T11:53:39.559Z,99740.23
2018-05-13T11:56:06.161Z,99728.30
2018-05-13T11:58:33.193Z,99734.92
2018-05-13T12:01:04.000Z,99730.50
2018-05-13T12:03:30.638Z,99732.68
2018-05-13T12:06:00.522Z,99729.99
2018-05-13T12:08:27.441Z,99719.48
2018-05-13T12:10:54.076Z,99723.98
2018-05-13T12:13:20.685Z,99725.38
2018-05-13T12:15:51.750Z,99723.23
2018-05-13T12:18:18.469Z,99725.59
2018-05-13T12:20:45.713Z,99724.03
2018-05-13T12:23:12.777Z,99721.02
2018-05-13T12:25:39.509Z,99713.96
2018-05-13T12:28:06.564Z,99708.97
2018-05-13T12:30:33.163Z,99706.74
2018-05-13T12:32:59.907Z,99702.81
2018-05-13T12:35:26.861Z,99694.84
2018-05-13T12:38:00.390Z,99700.45
2018-05-13T12:40:27.249Z,99695.98
2018-05-13T12:42:53.941Z,99694.18
2018-05-13T12:45:20.805Z,99692.42
2018-05-13T12:47:50.864Z,99694.84
2018-05-13T12:50:18.195Z,99698.73
2018-05-13T12:52:44.761Z,99698.36
2018-05-13T12:55:12.406Z,99680.47
2018-05-13T12:57:42.919Z,99691.84
2018-05-13T13:00:09.901Z,99688.83
2018-05-13T13:02:36.853Z,99696.17
2018-05-13T13:05:03.529Z,99684.17
2018-05-13T13:07:30.453Z,99685.69
2018-05-13T13:09:57.436Z,99680.95
2018-05-13T13:12:23.959Z,99686.20
2018-05-13T13:14:50.576Z,99684.61
2018-05-13T13:17:17.412Z,99691.39
2018-05-13T13:19:43.907Z,99683.20
2018-05-13T13:22:11.131Z,99685.10
2018-05-13T13:24:37.773Z,99682.59
2018-05-13T13:27:04.729Z,99689.23
2018-05-13T13:29:31.580Z,99691.25
2018-05-13T13:31:58.084Z,99676.55
2018-05-13T13:34:24.792Z,99684.78
2018-05-13T13:36:51.618Z,99678.09
2018-05-13T13:39:19.694Z,99682.80
2018-05-13T13:41:46.377Z,99681.76
2018-05-13T13:44:13.903Z,99690.10
2018-05-13T13:46:40.857Z,99686.14
2018-05-13T13:49:07.463Z,99694.63
2018-05-13T13:51:34.107Z,99703.02
2018-05-13T13:54:00.834Z,99693.97
2018-05-13T13:56:31.827Z,99698.28
2018-05-13T13:58:58.656Z,99690.70
2018-05-13T14:01:25.399Z,99696.14
2018-05-13T14:03:53.295Z,99688.32
2018-05-13T14:06:20.503Z,99695.84
2018-05-13T14:08:46.948Z,99695.91
2018-05-13T14:11:13.837Z,99684.79
2018-05-13T14:13:40.656Z,99693.84
2018-05-13T14:16:09.935Z,99692.34
2018-05-13T14:18:36.687Z,99693.39
2018-05-13T14:21:03.229Z,99691.72
2018-05-13T14:23:30.005Z,99684.28
2018-05-13T14:26:01.846Z,99683.34
2018-05-13T14:28:28.578Z,99688.40
2018-05-13T14:30:55.282Z,99678.63
2018-05-13T14:33:22.410Z,99688.40
2018-05-13T14:35:52.663Z,99687.05
2018-05-13T14:38:19.356Z,99689.37
2018-05-13T14:40:46.569Z,99693.84
2018-05-13T14:43:13.679Z,99694.51
2018-05-13T14:45:40.809Z,99694.76
2018-05-13T14:48:07.759Z,99693.19
2018-05-13T14:50:34.334Z,99693.34
2018-05-13T14:53:01.394Z,99694.00
2018-05-13T14:55:28.398Z,99700.59
2018-05-13T14:57:55.134Z,99695.33
2018-05-13T15:00:21.969Z,99696.66
2018-05-13T15:03:03.531Z,99696.82
2018-05-13T15:05:38.164Z,99691.78
2018-05-13T15:08:05.283Z,99687.92
2018-05-13T15:10:31.809Z,99688.19
2018-05-13T15:12:58.375Z,99686.19
2018-05-13T15:15:28.646Z,99687.33
2018-05-13T15:17:55.360Z,99684.23
2018-05-13T15:20:22.044Z,99687.53
2018-05-13T15:22:49.062Z,99685.77
2018-05-13T15:25:16.037Z,99693.67
2018-05-13T15:27:42.782Z,99690.23
2018-05-13T15:30:09.420Z,99687.69
2018-05-13T15:32:36.330Z,99695.97
2018-05-13T15:35:02.886Z,99695.16
2018-05-13T15:37:36.537Z,99700.03
2018-05-13T15:40:03.158Z,99701.06
2018-05-13T15:42:29.843Z,99701.98
2018-05-13T15:44:56.702Z,99680.32
2018-05-13T15:47:27.427Z,99680.48
2018-05-13T15:49:54.035Z,99696.19
2018-05-13T15:52:20.855Z,99684.98
2018-05-13T15:54:47.574Z,99688.80
2018-05-13T15:57:21.402Z,99681.18
2018-05-13T15:59:48.113Z,99684.23
2018-05-13T16:02:14.856Z,99696.34
2018-05-13T16:04:41.510Z,99689.34
2018-05-13T16:07:11.985Z,99690.45
2018-05-13T16:09:38.657Z,99709.69
2018-05-13T16:12:05.645Z,99707.54
2018-05-13T16:14:32.282Z,99711.66
2018-05-13T16:17:02.684Z,99711.00
2018-05-13T16:19:29.396Z,99717.34
2018-05-13T16:21:56.036Z,99713.75
2018-05-13T16:24:22.717Z,99706.50
2018-05-13T16:26:50.503Z,99703.20
2018-05-13T16:29:18.227Z,99705.77
2018-05-13T16:31:44.860Z,99714.61
2018-05-13T16:34:11.509Z,99718.80
2018-05-13T16:36:48.684Z,99717.45
2018-05-13T16:39:15.449Z,99721.65
2018-05-13T16:41:42.298Z,99723.59
2018-05-13T16:44:08.890Z,99734.54
2018-05-13T16:46:38.695Z,99733.87
2018-05-13T16:49:05.345Z,99732.59
2018-05-13T16:51:32.083Z,99739.63
2018-05-13T16:53:58.746Z,99734.02
2018-05-13T16:56:31.835Z,99738.70
2018-05-13T16:58:58.560Z,99741.53
2018-05-13T17:01:25.238Z,99743.64
2018-05-13T17:03:51.868Z,99749.08
2018-05-13T17:06:22.004Z,99746.71
2018-05-13T17:08:48.617Z,99747.59
2018-05-13T17:11:15.192Z,99749.71
2018-05-13T17:13:41.978Z,99749.23
2018-05-13T17:16:08.714Z,99750.00
2018-05-13T17:18:35.258Z,99755.50
2018-05-13T17:21:01.913Z,99753.31
2018-05-13T17:23:28.497Z,99758.57
2018-05-13T17:25:59.986Z,99764.52
2018-05-13T17:28:26.641Z,99770.53
2018-05-13T17:30:53.150Z,99763.50
2018-05-13T17:33:19.835Z,99770.48
2018-05-13T17:35:46.457Z,99774.27
2018-05-13T17:38:13.033Z,99770.48
2018-05-13T17:40:39.733Z,99775.92
2018-05-13T17:43:06.427Z,99773.94
2018-05-13T17:45:38.202Z,99774.41
2018-05-13T17:48:04.799Z,99786.11
2018-05-13T17:50:31.405Z,99783.33
2018-05-13T17:52:57.980Z,99782.27
2018-05-13T17:55:24.712Z,99785.38
2018-05-13T17:57:51.348Z,99783.85
2018-05-13T18:00:18.010Z,99787.22
2018-05-13T18:05:35.024Z,99775.38
2018-05-13T18:08:02.370Z,99779.48
2018-05-13T18:10:28.962Z,99772.52
2018-05-13T18:12:55.481Z,99785.03
2018-05-13T18:15:23.100Z,99788.95
2018-05-13T18:17:49.757Z,99796.84
2018-05-13T18:20:16.502Z,99795.17
2018-05-13T18:22:43.101Z,99804.43
2018-05-13T18:25:10.877Z,99810.66
2018-05-13T18:27:37.503Z,99807.02
2018-05-13T18:30:04.129Z,99793.59
2018-05-13T18:32:30.722Z,99797.83
2018-05-13T18:34:58.112Z,99800.14
2018-05-13T18:37:24.830Z,99795.73
2018-05-13T18:39:52.390Z,99791.42
2018-05-13T18:42:18.895Z,99804.02
2018-05-13T18:44:45.659Z,99811.05
2018-05-13T18:47:12.243Z,99810.22
2018-05-13T18:49:38.834Z,99815.00
2018-05-13T18:52:05.330Z,99824.28
2018-05-13T18:54:31.884Z,99823.10
2018-05-13T18:57:02.554Z,99825.43
2018-05-13T18:59:29.203Z,99823.84
2018-05-13T19:01:55.772Z,99820.20
2018-05-13T19:04:23.200Z,99823.72
2018-05-13T19:06:50.909Z,99820.86
2018-05-13T19:09:17.466Z,99827.38
2018-05-13T19:11:43.994Z,99826.37
2018-05-13T19:14:10.574Z,99830.71
2018-05-13T19:16:40.829Z,99832.30
2018-05-13T19:19:07.378Z,99828.05
2018-05-13T19:21:33.906Z,99829.39
2018-05-13T19:24:00.558Z,99834.31
2018-05-13T19:26:27.303Z,99824.28
2018-05-13T19:28:54.000Z,99825.66
2018-05-13T19:31:20.491Z,99828.95
2018-05-13T19:33:46.902Z,99835.11
2018-05-13T19:36:13.633Z,99842.46
2018-05-13T19:38:40.535Z,99841.78
2018-05-13T19:41:07.202Z,99855.46
2018-05-13T19:43:33.815Z,99850.36
2018-05-13T19:46:03.877Z,99851.12
2018-05-13T19:48:30.454Z,99852.07
2018-05-13T19:50:57.063Z,99849.23
2018-05-13T19:53:23.733Z,99851.72
2018-05-13T19:55:53.343Z,99851.61
2018-05-13T19:58:19.945Z,99843.86
2018-05-13T20:00:46.628Z,99850.75
2018-05-13T20:03:13.435Z,99848.28
2018-05-13T20:05:39.955Z,99859.27
2018-05-13T20:08:06.541Z,99855.06
2018-05-13T20:10:33.056Z,99856.73
2018-05-13T20:12:59.641Z,99856.23
2018-05-13T20:15:29.380Z,99864.52
2018-05-13T20:17:55.916Z,99859.14
2018-05-13T20:20:22.632Z,99847.38
2018-05-13T20:23:01.427Z,99856.23
2018-05-13T20:25:28.405Z,99852.76
2018-05-13T20:27:56.167Z,99856.84
2018-05-13T20:30:22.834Z,99853.95
2018-05-13T20:32:49.428Z,99854.19
2018-05-13T20:35:17.423Z,99844.84
2018-05-13T20:37:44.031Z,99845.06
2018-05-13T20:40:10.692Z,99848.08
2018-05-13T20:42:37.396Z,99847.97
2018-05-13T20:45:05.052Z,99848.59
2018-05-13T20:47:31.676Z,99850.03
2018-05-13T20:49:58.312Z,99848.98
2018-05-13T20:52:24.781Z,99854.47
2018-05-13T20:54:52.443Z,99860.12
2018-05-13T20:57:19.033Z,99861.31
2018-05-13T20:59:45.668Z,99852.34
2018-05-13T21:02:12.247Z,99852.17
2018-05-13T21:04:38.915Z,99850.56
2018-05-13T21:07:05.562Z,99853.05
2018-05-13T21:09:32.196Z,99850.27
2018-05-13T21:11:58.751Z,99844.27
2018-05-13T21:14:25.176Z,99846.50
2018-05-13T21:16:52.324Z,99844.99
2018-05-13T21:19:19.165Z,99836.23
2018-05-13T21:21:46.067Z,99841.57
2018-05-13T21:24:12.634Z,99841.67
2018-05-13T21:26:40.396Z,99842.42
2018-05-13T21:29:07.028Z,99842.95
2018-05-13T21:31:33.587Z,99842.97
2018-05-13T21:34:00.166Z,99847.59
2018-05-13T21:36:26.923Z,99845.29
2018-05-13T21:38:53.485Z,99837.50
2018-05-13T21:41:20.084Z,99851.89
2018-05-13T21:43:46.594Z,99847.80
2018-05-13T21:46:13.722Z,99844.44
2018-05-13T21:48:40.216Z,99842.41
2018-05-13T21:51:06.781Z,99838.41
2018-05-13T21:53:33.317Z,99832.04
2018-05-13T21:56:02.900Z,99835.89
2018-05-13T21:58:29.978Z,99838.58
2018-05-13T22:00:56.622Z,99836.06
2018-05-13T22:03:23.163Z,99832.58
2018-05-13T22:05:49.734Z,99835.90
2018-05-13T22:08:16.485Z,99838.74
2018-05-13T22:10:43.540Z,99838.97
2018-05-13T22:13:10.189Z,99841.31
2018-05-13T22:15:37.588Z,99837.90
2018-05-13T22:18:04.373Z,99841.34
2018-05-13T22:20:30.891Z,99839.21
2018-05-13T22:22:57.632Z,99837.86
2018-05-13T22:25:24.195Z,99837.29
2018-05-13T22:27:50.751Z,99837.62
2018-05-13T22:30:17.371Z,99837.03
2018-05-13T22:32:44.576Z,99836.44
2018-05-13T22:35:12.638Z,99836.30
2018-05-13T22:37:39.317Z,99836.17
2018-05-13T22:40:05.958Z,99842.02
2018-05-13T22:42:32.516Z,99836.38
2018-05-13T22:44:59.314Z,99832.39
2018-05-13T22:47:26.000Z,99834.02
2018-05-13T22:49:52.508Z,99826.52
2018-05-13T22:52:19.202Z,99820.39
2018-05-13T22:54:45.541Z,99815.13
2018-05-13T22:57:12.124Z,99811.21
2018-05-13T22:59:39.020Z,99805.13
2018-05-13T23:02:05.587Z,99803.94
2018-05-13T23:04:32.343Z,99804.30
2018-05-13T23:06:58.973Z,99792.86
2018-05-13T23:09:25.524Z,99801.72
2018-05-13T23:11:52.153Z,99791.34
2018-05-13T23:14:19.832Z,99786.66
2018-05-13T23:16:46.496Z,99797.84
2018-05-13T23:19:12.973Z,99799.73
2018-05-13T23:21:39.522Z,99802.13
2018-05-13T23:24:09.708Z,99802.75
2018-05-13T23:26:36.332Z,99808.68
2018-05-13T23:29:02.877Z,99813.20
2018-05-13T23:31:29.554Z,99814.58
2018-05-13T23:33:56.673Z,99817.11
2018-05-13T23:36:23.373Z,99818.31
2018-05-13T23:38:49.973Z,99806.12
2018-05-13T23:41:16.642Z,99810.59
2018-05-13T23:43:43.297Z,99818.67
2018-05-13T23:46:10.461Z,99815.76
2018-05-13T23:48:37.637Z,99811.03
2018-05-13T23:51:04.344Z,99811.09
2018-05-13T23:53:31.020Z,99815.74
2018-05-13T23:55:57.991Z,99807.45
2018-05-13T23:58:25.446Z,99808.77
